createdAt,value
2022-10-11T00:02:07.140Z,102141.38
2022-10-11T00:04:34.886Z,102144.34
2022-10-11T00:07:02.625Z,102144.94
2022-10-11T00:09:31.464Z,102143.31
2022-10-11T00:11:59.294Z,102146.56
2022-10-11T00:14:28.009Z,102143.84
2022-10-11T00:16:57.412Z,102146.88
2022-10-11T00:19:25.217Z,102152.59
2022-10-11T00:21:53.031Z,102156.41
2022-10-11T00:24:20.974Z,102153.16
2022-10-11T00:26:48.772Z,102148.81
2022-10-11T00:29:16.514Z,102154.81
2022-10-11T00:31:44.283Z,102157.00
2022-10-11T00:34:15.569Z,102161.38
2022-10-11T00:36:43.332Z,102162.75
2022-10-11T00:39:12.297Z,102157.06
2022-10-11T00:41:41.570Z,102157.13
2022-10-11T00:44:11.281Z,102152.50
2022-10-11T00:46:41.000Z,102163.09
2022-10-11T00:49:18.231Z,102153.13
2022-10-11T00:51:51.876Z,102160.19
2022-10-11T00:54:23.046Z,102163.47
2022-10-11T00:56:54.462Z,102168.63
2022-10-11T00:59:25.899Z,102169.47
2022-10-11T01:01:53.854Z,102174.63
2022-10-11T01:04:23.060Z,102169.78
2022-10-11T01:06:51.663Z,102173.31
2022-10-11T01:09:21.329Z,102169.28
2022-10-11T01:11:53.771Z,102175.25
2022-10-11T01:14:43.996Z,102180.72
2022-10-11T01:17:25.326Z,102179.63
2022-10-11T01:20:13.616Z,102185.88
2022-10-11T01:23:09.473Z,102189.44
2022-10-11T01:25:42.689Z,102186.72
2022-10-11T01:28:27.613Z,102182.88
2022-10-11T01:31:01.508Z,102192.13
2022-10-11T01:33:36.858Z,102188.88
2022-10-11T01:36:12.809Z,102191.06
2022-10-11T01:38:47.880Z,102185.34
2022-10-11T01:41:20.251Z,102185.94
2022-10-11T01:43:49.524Z,102187.25
2022-10-11T01:46:21.071Z,102187.81
2022-10-11T01:48:50.725Z,102189.16
2022-10-11T01:51:22.605Z,102187.84
2022-10-11T01:54:05.553Z,102190.28
2022-10-11T01:56:47.709Z,102181.59
2022-10-11T01:59:26.057Z,102185.16
2022-10-11T02:02:07.347Z,102176.44
2022-10-11T02:04:41.978Z,102182.16
2022-10-11T02:07:13.999Z,102187.34
2022-10-11T02:09:47.523Z,102185.72
2022-10-11T02:12:23.825Z,102183.53
2022-10-11T02:14:55.688Z,102184.91
2022-10-11T02:17:30.789Z,102190.03
2022-10-11T02:20:00.291Z,102186.78
2022-10-11T02:22:33.038Z,102201.44
2022-10-11T02:25:04.480Z,102199.25
2022-10-11T02:27:35.232Z,102201.69
2022-10-11T02:30:07.339Z,102199.28
2022-10-11T02:32:40.994Z,102204.41
2022-10-11T02:35:10.562Z,102211.19
2022-10-11T02:37:44.637Z,102210.09
2022-10-11T02:40:17.359Z,102214.97
2022-10-11T02:42:49.729Z,102216.06
2022-10-11T02:45:23.444Z,102215.78
2022-10-11T02:47:53.102Z,102225.81
2022-10-11T02:50:23.117Z,102218.22
2022-10-11T02:52:51.112Z,102216.03
2022-10-11T02:55:19.146Z,102220.91
2022-10-11T02:57:47.068Z,102225.81
2022-10-11T03:00:15.806Z,102220.09
2022-10-11T03:02:43.637Z,102217.66
2022-10-11T03:05:12.783Z,102221.47
2022-10-11T03:07:40.596Z,102229.03
2022-10-11T03:10:08.943Z,102226.59
2022-10-11T03:12:36.767Z,102227.13
2022-10-11T03:15:04.958Z,102232.81
2022-10-11T03:17:36.732Z,102232.81
2022-10-11T03:20:06.318Z,102232.00
2022-10-11T03:22:35.630Z,102230.63
2022-10-11T03:25:04.638Z,102230.88
2022-10-11T03:27:32.731Z,102233.88
2022-10-11T03:30:00.578Z,102236.84
2022-10-11T03:32:28.546Z,102240.63
2022-10-11T03:34:56.413Z,102244.69
2022-10-11T03:37:25.224Z,102238.72
2022-10-11T03:39:54.474Z,102244.41
2022-10-11T03:42:22.272Z,102248.47
2022-10-11T03:44:51.956Z,102252.25
2022-10-11T03:47:20.066Z,102259.81
2022-10-11T03:49:47.934Z,102257.38
2022-10-11T03:52:15.711Z,102258.72
2022-10-11T03:54:43.488Z,102254.66
2022-10-11T03:57:12.680Z,102266.00
2022-10-11T03:59:40.461Z,102263.56
2022-10-11T04:02:08.330Z,102270.31
2022-10-11T04:04:36.334Z,102267.88
2022-10-11T04:07:04.480Z,102272.75
2022-10-11T04:09:32.406Z,102273.84
2022-10-11T04:12:00.849Z,102275.97
2022-10-11T04:14:30.071Z,102273.53
2022-10-11T04:17:00.377Z,102284.63
2022-10-11T04:19:28.854Z,102293.28
2022-10-11T04:21:56.582Z,102290.00
2022-10-11T04:24:24.377Z,102286.75
2022-10-11T04:26:52.168Z,102290.53
2022-10-11T04:29:19.884Z,102287.28
2022-10-11T04:31:49.102Z,102296.47
2022-10-11T04:34:17.298Z,102287.81
2022-10-11T04:36:49.613Z,102289.16
2022-10-11T04:39:17.843Z,102293.19
2022-10-11T04:41:45.676Z,102292.91
2022-10-11T04:44:13.500Z,102301.50
2022-10-11T04:46:41.292Z,102308.28
2022-10-11T04:49:10.402Z,102299.63
2022-10-11T04:51:38.205Z,102309.88
2022-10-11T04:54:06.115Z,102308.22
2022-10-11T04:56:33.896Z,102309.28
2022-10-11T04:59:01.722Z,102313.88
2022-10-11T05:01:29.537Z,102304.41
2022-10-11T05:03:57.335Z,102304.41
2022-10-11T05:06:26.484Z,102310.31
2022-10-11T05:08:54.207Z,102313.28
2022-10-11T05:11:22.000Z,102309.22
2022-10-11T05:13:50.084Z,102309.22
2022-10-11T05:16:18.340Z,102320.53
2022-10-11T05:18:46.291Z,102315.66
2022-10-11T05:21:17.467Z,102315.94
2022-10-11T05:23:48.166Z,102317.25
2022-10-11T05:26:16.211Z,102319.41
2022-10-11T05:28:44.262Z,102313.44
2022-10-11T05:31:12.116Z,102318.31
2022-10-11T05:33:40.212Z,102320.16
2022-10-11T05:36:09.674Z,102326.91
2022-10-11T05:38:38.981Z,102324.75
2022-10-11T05:41:10.026Z,102331.22
2022-10-11T05:43:37.854Z,102334.97
2022-10-11T05:46:06.879Z,102331.72
2022-10-11T05:48:35.179Z,102340.09
2022-10-11T05:51:03.681Z,102337.66
2022-10-11T05:53:32.185Z,102345.19
2022-10-11T05:56:00.307Z,102348.16
2022-10-11T05:58:29.655Z,102347.34
2022-10-11T06:00:57.750Z,102356.50
2022-10-11T06:03:25.878Z,102352.44
2022-10-11T06:05:56.928Z,102360.78
2022-10-11T06:08:25.151Z,102358.09
2022-10-11T06:10:52.999Z,102361.88
2022-10-11T06:13:20.814Z,102369.97
2022-10-11T06:15:50.263Z,102371.06
2022-10-11T06:18:18.011Z,102373.75
2022-10-11T06:20:45.805Z,102372.13
2022-10-11T06:23:13.656Z,102377.53
2022-10-11T06:25:41.461Z,102376.72
2022-10-11T06:28:09.349Z,102382.94
2022-10-11T06:30:39.400Z,102382.94
2022-10-11T06:33:08.660Z,102375.63
2022-10-11T06:35:36.428Z,102382.41
2022-10-11T06:38:04.206Z,102383.53
2022-10-11T06:40:32.059Z,102390.31
2022-10-11T06:42:59.841Z,102384.16
2022-10-11T06:45:27.576Z,102392.56
2022-10-11T06:47:55.341Z,102391.78
2022-10-11T06:50:47.093Z,102395.84
2022-10-11T06:53:12.705Z,102396.44
2022-10-11T06:55:40.866Z,102407.00
2022-10-11T06:58:08.544Z,102401.06
2022-10-11T07:00:36.316Z,102399.75
2022-10-11T07:03:04.859Z,102402.19
2022-10-11T07:05:35.839Z,102416.25
2022-10-11T07:08:03.636Z,102412.47
2022-10-11T07:10:31.388Z,102413.28
2022-10-11T07:12:59.081Z,102422.81
2022-10-11T07:15:27.022Z,102426.06
2022-10-11T07:17:54.769Z,102426.59
2022-10-11T07:20:22.606Z,102427.19
2022-10-11T07:22:51.724Z,102426.66
2022-10-11T07:25:19.496Z,102430.75
2022-10-11T07:27:47.264Z,102432.19
2022-10-11T07:30:15.007Z,102436.34
2022-10-11T07:32:42.774Z,102434.59
2022-10-11T07:35:13.556Z,102442.81
2022-10-11T07:37:41.325Z,102439.16
2022-10-11T07:40:11.652Z,102438.19
2022-10-11T07:42:39.586Z,102432.84
2022-10-11T07:45:07.965Z,102431.84
2022-10-11T07:47:35.711Z,102432.97
2022-10-11T07:50:03.457Z,102428.66
2022-10-11T07:52:31.207Z,102425.94
2022-10-11T07:54:58.944Z,102423.78
2022-10-11T07:57:28.109Z,102423.56
2022-10-11T07:59:55.935Z,102427.63
2022-10-11T08:02:23.733Z,102427.06
2022-10-11T08:04:51.668Z,102430.31
2022-10-11T08:07:19.470Z,102427.59
2022-10-11T08:09:47.321Z,102437.91
2022-10-11T08:12:15.152Z,102428.09
2022-10-11T08:14:44.348Z,102430.00
2022-10-11T08:17:12.134Z,102438.16
2022-10-11T08:19:39.957Z,102435.69
2022-10-11T08:22:08.038Z,102437.59
2022-10-11T08:24:38.277Z,102431.31
2022-10-11T08:27:06.411Z,102440.53
2022-10-11T08:29:34.632Z,102423.44
2022-10-11T08:32:03.787Z,102424.47
2022-10-11T08:34:31.592Z,102423.13
2022-10-11T08:36:59.449Z,102429.63
2022-10-11T08:39:27.296Z,102432.34
2022-10-11T08:41:56.939Z,102433.94
2022-10-11T08:45:09.658Z,102435.56
2022-10-11T08:47:33.913Z,102440.44
2022-10-11T08:50:02.277Z,102442.03
2022-10-11T08:52:46.318Z,102440.91
2022-10-11T08:55:20.375Z,102443.56
2022-10-11T08:57:53.354Z,102432.66
2022-10-11T09:00:22.470Z,102445.94
2022-10-11T09:03:09.982Z,102436.34
2022-10-11T09:05:48.088Z,102448.19
2022-10-11T09:08:23.293Z,102445.91
2022-10-11T09:11:00.873Z,102448.53
2022-10-11T09:13:53.594Z,102447.28
2022-10-11T09:16:30.358Z,102446.31
2022-10-11T09:19:16.038Z,102452.41
2022-10-11T09:21:53.019Z,102450.59
2022-10-11T09:24:35.066Z,102439.84
2022-10-11T09:27:14.290Z,102439.28
2022-10-11T09:29:55.684Z,102440.75
2022-10-11T09:32:26.104Z,102442.41
2022-10-11T09:35:01.173Z,102435.34
2022-10-11T09:37:34.510Z,102433.38
2022-10-11T09:40:18.666Z,102438.00
2022-10-11T09:42:46.476Z,102441.13
2022-10-11T09:45:18.493Z,102435.09
2022-10-11T09:47:46.561Z,102430.78
2022-10-11T09:50:20.020Z,102427.75
2022-10-11T09:52:51.966Z,102429.06
2022-10-11T09:55:36.105Z,102439.19
2022-10-11T09:58:04.975Z,102434.53
2022-10-11T10:00:33.877Z,102430.66
2022-10-11T10:03:03.517Z,102435.41
2022-10-11T10:05:34.257Z,102440.78
2022-10-11T10:08:08.101Z,102430.50
2022-10-11T10:10:39.718Z,102440.38
2022-10-11T10:13:20.949Z,102441.75
2022-10-11T10:15:51.914Z,102442.31
2022-10-11T10:18:23.734Z,102437.16
2022-10-11T10:20:59.460Z,102435.47
2022-10-11T10:23:30.755Z,102442.28
2022-10-11T10:26:13.324Z,102439.81
2022-10-11T10:28:55.942Z,102438.94
2022-10-11T10:31:26.410Z,102436.25
2022-10-11T10:33:55.764Z,102440.97
2022-10-11T10:36:30.588Z,102438.75
2022-10-11T10:39:03.523Z,102430.81
2022-10-11T10:41:31.426Z,102425.50
2022-10-11T10:44:01.195Z,102430.88
2022-10-11T10:46:41.549Z,102431.63
2022-10-11T10:49:52.486Z,102430.16
2022-10-11T10:52:26.794Z,102430.16
2022-10-11T10:55:03.829Z,102430.19
2022-10-11T10:57:45.457Z,102429.75
2022-10-11T11:00:17.118Z,102428.47
2022-10-11T11:02:51.607Z,102430.44
2022-10-11T11:05:28.213Z,102428.81
2022-10-11T11:08:08.299Z,102434.31
2022-10-11T11:10:40.003Z,102432.03
2022-10-11T11:13:28.561Z,102442.13
2022-10-11T11:16:07.686Z,102446.63
2022-10-11T11:18:43.254Z,102432.19
2022-10-11T11:21:23.328Z,102438.13
2022-10-11T11:24:02.691Z,102432.66
2022-10-11T11:26:40.776Z,102424.91
2022-10-11T11:29:22.217Z,102430.56
2022-10-11T11:32:08.334Z,102432.38
2022-10-11T11:34:42.461Z,102427.41
2022-10-11T11:37:17.946Z,102418.56
2022-10-11T11:39:51.787Z,102415.00
2022-10-11T11:42:24.394Z,102416.81
2022-10-11T11:44:52.805Z,102409.56
2022-10-11T11:47:26.878Z,102404.25
2022-10-11T11:49:59.776Z,102401.19
2022-10-11T11:52:32.605Z,102402.47
2022-10-11T11:55:09.913Z,102403.47
2022-10-11T11:57:53.109Z,102400.56
2022-10-11T12:00:23.312Z,102399.44
2022-10-11T12:02:54.378Z,102397.50
2022-10-11T12:05:25.361Z,102395.44
2022-10-11T12:07:57.521Z,102394.56
2022-10-11T12:10:34.165Z,102397.16
2022-10-11T12:13:17.250Z,102388.88
2022-10-11T12:16:13.577Z,102394.16
2022-10-11T12:18:55.043Z,102389.78
2022-10-11T12:21:30.630Z,102390.78
2022-10-11T12:24:00.119Z,102390.44
2022-10-11T12:26:41.576Z,102392.81
2022-10-11T12:29:29.141Z,102387.97
2022-10-11T12:32:53.448Z,102382.34
2022-10-11T12:35:58.102Z,102380.13
2022-10-11T12:38:31.772Z,102382.25
2022-10-11T12:41:01.636Z,102369.19
2022-10-11T12:43:36.286Z,102369.88
2022-10-11T12:46:39.340Z,102365.66
2022-10-11T12:49:21.774Z,102371.97
2022-10-11T12:51:59.973Z,102366.97
2022-10-11T12:54:54.008Z,102358.88
2022-10-11T12:57:51.636Z,102362.09
2022-10-11T13:00:26.148Z,102358.41
2022-10-11T13:02:53.906Z,102364.06
2022-10-11T13:05:27.137Z,102356.63
2022-10-11T13:07:59.032Z,102358.41
2022-10-11T13:10:31.724Z,102357.28
2022-10-11T13:13:04.355Z,102359.50
2022-10-11T13:15:32.476Z,102350.00
2022-10-11T13:18:01.538Z,102357.75
2022-10-11T13:20:32.209Z,102350.31
2022-10-11T13:23:02.292Z,102344.69
2022-10-11T13:25:37.438Z,102345.84
2022-10-11T13:28:09.973Z,102339.69
2022-10-11T13:30:43.400Z,102339.88
2022-10-11T13:33:19.409Z,102337.94
2022-10-11T13:35:48.489Z,102334.69
2022-10-11T13:38:21.828Z,102339.03
2022-10-11T13:40:51.236Z,102330.66
2022-10-11T13:43:23.434Z,102338.28
2022-10-11T13:45:51.452Z,102324.22
2022-10-11T13:48:19.406Z,102327.63
2022-10-11T13:51:06.563Z,102329.88
2022-10-11T13:53:36.109Z,102318.59
2022-10-11T13:56:07.360Z,102324.88
2022-10-11T13:58:40.367Z,102318.28
2022-10-11T14:01:19.038Z,102321.97
2022-10-11T14:03:48.748Z,102315.69
2022-10-11T14:06:16.671Z,102315.53
2022-10-11T14:08:47.740Z,102317.28
2022-10-11T14:11:16.776Z,102312.44
2022-10-11T14:13:46.424Z,102319.06
2022-10-11T14:16:29.126Z,102310.19
2022-10-11T14:19:10.046Z,102312.78
2022-10-11T14:21:51.223Z,102315.84
2022-10-11T14:24:20.998Z,102315.03
2022-10-11T14:26:51.473Z,102313.91
2022-10-11T14:29:25.624Z,102313.09
2022-10-11T14:31:56.390Z,102304.59
2022-10-11T14:34:27.117Z,102308.28
2022-10-11T14:36:54.970Z,102311.50
2022-10-11T14:39:27.557Z,102311.34
2022-10-11T14:41:55.635Z,102310.19
2022-10-11T14:44:24.084Z,102306.81
2022-10-11T14:46:54.702Z,102305.34
2022-10-11T14:49:25.261Z,102307.75
2022-10-11T14:51:54.487Z,102308.41
2022-10-11T14:54:25.608Z,102301.28
2022-10-11T14:56:55.972Z,102297.91
2022-10-11T14:59:26.788Z,102304.19
2022-10-11T15:01:54.816Z,102299.00
2022-10-11T15:04:23.512Z,102302.28
2022-10-11T15:06:52.440Z,102291.13
2022-10-11T15:09:21.527Z,102292.25
2022-10-11T15:11:52.862Z,102295.47
2022-10-11T15:14:20.621Z,102290.31
2022-10-11T15:16:48.857Z,102284.19
2022-10-11T15:19:18.457Z,102280.78
2022-10-11T15:21:46.768Z,102287.75
2022-10-11T15:24:14.943Z,102283.88
2022-10-11T15:26:42.756Z,102275.00
2022-10-11T15:29:13.776Z,102273.38
2022-10-11T15:31:41.582Z,102275.16
2022-10-11T15:34:09.452Z,102275.16
2022-10-11T15:36:37.208Z,102277.88
2022-10-11T15:39:05.239Z,102274.66
2022-10-11T15:41:33.066Z,102278.88
2022-10-11T15:44:00.844Z,102281.94
2022-10-11T15:46:30.141Z,102282.09
2022-10-11T15:48:57.917Z,102281.63
2022-10-11T15:51:25.820Z,102288.91
2022-10-11T15:53:53.639Z,102278.06
2022-10-11T15:56:21.423Z,102273.22
2022-10-11T15:58:50.110Z,102280.16
2022-10-11T16:01:20.279Z,102283.06
2022-10-11T16:03:50.807Z,102276.44
2022-10-11T16:06:19.571Z,102280.78
2022-10-11T16:08:48.136Z,102277.38
2022-10-11T16:11:16.029Z,102285.75
2022-10-11T16:13:45.093Z,102283.16
2022-10-11T16:16:13.446Z,102289.91
2022-10-11T16:18:41.570Z,102286.50
2022-10-11T16:21:15.458Z,102280.34
2022-10-11T16:23:43.403Z,102281.09
2022-10-11T16:26:16.278Z,102275.28
2022-10-11T16:28:44.503Z,102271.91
2022-10-11T16:31:18.010Z,102270.75
2022-10-11T16:33:50.149Z,102269.88
2022-10-11T16:36:36.095Z,102271.44
2022-10-11T16:39:08.131Z,102274.16
2022-10-11T16:41:36.045Z,102282.81
2022-10-11T16:44:03.869Z,102272.94
2022-10-11T16:46:32.838Z,102276.91
2022-10-11T16:49:00.842Z,102276.06
2022-10-11T16:51:30.061Z,102272.97
2022-10-11T16:53:58.213Z,102279.19
2022-10-11T16:56:26.080Z,102283.13
2022-10-11T16:58:54.288Z,102286.59
2022-10-11T17:01:22.525Z,102277.38
2022-10-11T17:03:50.840Z,102279.91
2022-10-11T17:06:19.242Z,102282.97
2022-10-11T17:08:48.402Z,102280.38
2022-10-11T17:11:17.419Z,102288.69
2022-10-11T17:13:45.383Z,102287.50
2022-10-11T17:16:14.092Z,102281.81
2022-10-11T17:18:41.865Z,102286.28
2022-10-11T17:21:13.041Z,102286.72
2022-10-11T17:23:41.039Z,102285.19
2022-10-11T17:26:13.362Z,102287.72
2022-10-11T17:28:41.653Z,102282.06
2022-10-11T17:31:10.219Z,102282.97
2022-10-11T17:33:38.603Z,102285.00
2022-10-11T17:36:16.505Z,102285.94
2022-10-11T17:38:44.342Z,102287.66
2022-10-11T17:41:13.669Z,102287.78
2022-10-11T17:43:41.900Z,102301.53
2022-10-11T17:46:10.145Z,102295.34
2022-10-11T17:48:39.402Z,102291.41
2022-10-11T17:51:09.162Z,102291.50
2022-10-11T17:53:37.290Z,102293.78
2022-10-11T17:56:06.373Z,102291.97
2022-10-11T17:58:36.283Z,102295.59
2022-10-11T18:01:05.931Z,102289.72
2022-10-11T18:03:34.485Z,102289.31
2022-10-11T18:06:06.719Z,102295.16
2022-10-11T18:08:39.999Z,102286.84
2022-10-11T18:11:12.777Z,102291.88
2022-10-11T18:13:45.997Z,102294.50
2022-10-11T18:16:14.974Z,102296.50
2022-10-11T18:18:42.899Z,102292.53
2022-10-11T18:21:11.179Z,102304.09
2022-10-11T18:23:39.256Z,102292.75
2022-10-11T18:26:11.878Z,102301.31
2022-10-11T18:28:41.694Z,102295.94
2022-10-11T18:31:13.746Z,102297.41
2022-10-11T18:33:42.429Z,102301.31
2022-10-11T18:36:13.514Z,102299.75
2022-10-11T18:38:46.322Z,102292.75
2022-10-11T18:41:16.737Z,102293.88
2022-10-11T18:43:49.739Z,102301.34
2022-10-11T18:46:18.074Z,102298.66
2022-10-11T18:48:47.828Z,102297.13
2022-10-11T18:51:18.419Z,102292.56
2022-10-11T18:53:47.079Z,102297.56
2022-10-11T18:56:16.909Z,102294.06
2022-10-11T18:58:46.381Z,102296.84
2022-10-11T19:01:17.301Z,102289.84
2022-10-11T19:03:46.692Z,102295.34
2022-10-11T19:06:18.217Z,102287.25
2022-10-11T19:08:46.654Z,102293.84
2022-10-11T19:11:16.638Z,102288.44
2022-10-11T19:13:46.116Z,102297.75
2022-10-11T19:16:16.663Z,102294.00
2022-10-11T19:18:45.200Z,102294.06
2022-10-11T19:21:14.568Z,102292.47
2022-10-11T19:23:44.552Z,102284.09
2022-10-11T19:26:15.829Z,102294.72
2022-10-11T19:28:44.512Z,102286.34
2022-10-11T19:31:16.937Z,102286.66
2022-10-11T19:33:48.024Z,102290.75
2022-10-11T19:36:16.289Z,102282.66
2022-10-11T19:38:46.192Z,102291.66
2022-10-11T19:41:15.077Z,102284.34
2022-10-11T19:43:43.168Z,102296.09
2022-10-11T19:46:20.246Z,102297.75
2022-10-11T19:48:56.064Z,102291.50
2022-10-11T19:51:26.284Z,102289.38
2022-10-11T19:53:57.068Z,102289.09
2022-10-11T19:56:25.352Z,102288.88
2022-10-11T19:58:53.424Z,102290.81
2022-10-11T20:01:24.400Z,102291.38
2022-10-11T20:03:54.897Z,102292.75
2022-10-11T20:06:24.666Z,102295.53
2022-10-11T20:09:16.765Z,102295.25
2022-10-11T20:11:41.275Z,102292.56
2022-10-11T20:14:09.500Z,102299.97
2022-10-11T20:16:39.116Z,102298.88
2022-10-11T20:19:07.002Z,102294.28
2022-10-11T20:21:34.860Z,102293.25
2022-10-11T20:24:05.052Z,102292.16
2022-10-11T20:26:33.282Z,102285.69
2022-10-11T20:29:04.464Z,102293.28
2022-10-11T20:31:34.171Z,102294.94
2022-10-11T20:34:06.194Z,102286.81
2022-10-11T20:36:36.261Z,102292.81
2022-10-11T20:39:06.371Z,102287.13
2022-10-11T20:41:37.075Z,102279.81
2022-10-11T20:44:05.688Z,102281.97
2022-10-11T20:46:35.266Z,102290.97
2022-10-11T20:49:06.317Z,102292.34
2022-10-11T20:51:36.301Z,102285.84
2022-10-11T20:54:04.967Z,102282.34
2022-10-11T20:56:33.709Z,102281.00
2022-10-11T20:59:01.844Z,102282.63
2022-10-11T21:01:31.796Z,102277.75
2022-10-11T21:04:00.603Z,102287.53
2022-10-11T21:06:31.466Z,102285.38
2022-10-11T21:09:00.192Z,102276.69
2022-10-11T21:11:28.589Z,102278.59
2022-10-11T21:13:57.540Z,102275.06
2022-10-11T21:16:26.016Z,102282.41
2022-10-11T21:18:55.505Z,102274.53
2022-10-11T21:21:24.845Z,102276.72
2022-10-11T21:23:56.289Z,102270.47
2022-10-11T21:26:24.142Z,102275.06
2022-10-11T21:28:52.199Z,102278.88
2022-10-11T21:31:21.378Z,102270.22
2022-10-11T21:33:49.748Z,102270.22
2022-10-11T21:36:19.778Z,102268.59
2022-10-11T21:38:48.746Z,102268.59
2022-10-11T21:41:20.411Z,102267.78
2022-10-11T21:43:48.782Z,102268.06
2022-10-11T21:46:18.874Z,102267.50
2022-10-11T21:48:47.109Z,102265.88
2022-10-11T21:51:16.716Z,102275.09
2022-10-11T21:53:44.545Z,102277.28
2022-10-11T21:56:12.455Z,102278.63
2022-10-11T21:58:41.829Z,102278.38
2022-10-11T22:01:09.904Z,102284.63
2022-10-11T22:03:37.722Z,102275.44
2022-10-11T22:06:06.050Z,102285.97
2022-10-11T22:08:33.942Z,102286.00
2022-10-11T22:11:02.243Z,102287.34
2022-10-11T22:13:32.069Z,102288.16
2022-10-11T22:16:05.501Z,102278.13
2022-10-11T22:18:33.864Z,102276.78
2022-10-11T22:21:06.440Z,102275.69
2022-10-11T22:23:34.861Z,102270.81
2022-10-11T22:26:06.839Z,102266.22
2022-10-11T22:28:35.794Z,102272.16
2022-10-11T22:31:07.193Z,102263.75
2022-10-11T22:33:35.612Z,102265.38
2022-10-11T22:36:08.722Z,102267.84
2022-10-11T22:38:37.876Z,102265.94
2022-10-11T22:41:05.965Z,102264.03
2022-10-11T22:43:33.738Z,102268.09
2022-10-11T22:46:01.919Z,102258.88
2022-10-11T22:48:31.282Z,102265.66
2022-10-11T22:50:59.061Z,102266.19
2022-10-11T22:53:26.859Z,102269.19
2022-10-11T22:55:54.888Z,102262.13
2022-10-11T22:58:22.611Z,102261.03
2022-10-11T23:00:50.464Z,102256.16
2022-10-11T23:03:19.263Z,102251.28
2022-10-11T23:05:56.494Z,102263.19
2022-10-11T23:08:24.317Z,102250.72
2022-10-11T23:10:52.250Z,102253.97
2022-10-11T23:13:20.232Z,102254.50
2022-10-11T23:15:48.043Z,102253.16
2022-10-11T23:18:16.398Z,102255.31
2022-10-11T23:20:44.183Z,102251.22
2022-10-11T23:23:13.363Z,102258.28
2022-10-11T23:25:41.130Z,102258.78
2022-10-11T23:28:10.820Z,102258.25
2022-10-11T23:30:40.648Z,102263.94
2022-10-11T23:33:08.440Z,102259.84
2022-10-11T23:35:36.570Z,102262.03
2022-10-11T23:38:04.403Z,102256.06
2022-10-11T23:40:33.628Z,102258.25
2022-10-11T23:43:01.386Z,102254.97
2022-10-11T23:45:29.280Z,102251.72
2022-10-11T23:47:57.134Z,102245.75
2022-10-11T23:50:24.953Z,102259.00
2022-10-11T23:52:52.673Z,102254.13
2022-10-11T23:55:20.496Z,102262.53
2022-10-11T23:57:49.721Z,102252.22
